EDT,Max TemperatureF,Mean TemperatureF,Min TemperatureF,Max Dew PointF,MeanDew PointF,Min DewpointF,Max Humidity, Mean Humidity, Min Humidity, Max Sea Level PressureIn, Mean Sea Level PressureIn, Min Sea Level PressureIn, Max VisibilityMiles, Mean VisibilityMiles, Min VisibilityMiles, Max Wind SpeedMPH, Mean Wind SpeedMPH, Max Gust SpeedMPH,PrecipitationIn, CloudCover, Events, WindDirDegrees
2012-10-1,90,83,75,76,73,71,94,77,59,29.85,29.81,29.76,10,10,7,20,9,26,0.03,2,Rain,172
2012-10-2,88,82,75,74,73,72,94,79,63,30.06,29.94,29.85,10,10,6,25,9,33,0.05,3,Rain-Thunderstorm,198
2012-10-3,89,82,74,78,74,72,94,79,63,30.19,30.11,30.05,10,10,10,20,8,24,0.00,2,,143
2012-10-4,89,82,74,77,75,72,94,81,68,30.18,30.14,30.10,10,10,9,13,5,18,0.04,3,,87
2012-10-5,88,82,75,79,75,73,100,83,65,30.11,30.04,29.97,10,10,10,13,4,17,0.01,2,Rain-Thunderstorm,78
2012-10-6,87,80,73,76,74,70,100,83,65,29.98,29.94,29.88,10,8,1,20,4,25,1.02,4,Rain-Thunderstorm,99
2012-10-7,86,79,71,76,73,69,94,80,65,30.00,29.96,29.92,10,10,10,17,4,23,0.00,2,,42
2012-10-8,87,80,73,76,73,69,94,80,65,30.04,29.99,29.94,10,10,10,13,4,15,0.05,2,Rain-Thunderstorm,52
2012-10-9,87,80,72,75,73,72,100,83,65,30.05,30.01,29.97,10,10,6,15,7,21,0.00,3,,360
2012-10-10,85,78,70,75,70,64,100,81,61,30.10,30.06,30.01,10,10,5,18,8,22,0.00,2,,1
2012-10-11,85,78,71,66,64,59,79,67,55,30.16,30.11,30.07,10,10,10,17,11,23,0.00,1,,27
2012-10-12,84,80,75,65,63,61,69,60,51,30.16,30.12,30.08,10,10,10,21,12,25,0.00,2,,23
2012-10-13,84,80,76,69,66,63,74,65,55,30.17,30.11,30.08,10,10,9,22,15,30,T,4,Rain,53
2012-10-14,87,81,75,74,72,65,85,72,58,30.09,30.02,29.98,10,9,2,23,12,28,0.42,7,Rain-Thunderstorm,77
2012-10-15,86,79,72,75,72,70,93,77,61,29.99,29.91,29.82,10,9,4,14,6,18,0.00,4,Rain-Thunderstorm,72
2012-10-16,85,77,69,72,69,67,100,81,61,29.88,29.84,29.80,10,10,10,16,6,20,0.00,0,,354
2012-10-17,83,76,68,72,69,66,97,81,65,29.91,29.86,29.83,10,9,2,18,4,23,0.38,3,Rain-Thunderstorm,154
2012-10-18,84,76,67,75,72,66,100,85,70,29.91,29.86,29.83,10,8,0,23,3,26,1.04,5,Fog-Rain-Thunderstorm,111
2012-10-19,89,79,69,75,72,68,100,79,57,29.90,29.86,29.81,10,10,10,13,6,16,0.00,2,,217
2012-10-20,82,72,61,71,63,56,100,71,42,29.96,29.91,29.85,10,10,10,15,6,20,0.00,2,,331
2012-10-21,82,71,59,63,59,55,93,68,42,30.04,30.00,29.94,10,10,10,15,7,18,0.00,1,,19
2012-10-22,83,79,74,65,62,60,64,58,51,30.07,30.03,29.99,10,10,10,21,12,25,0.00,2,,57
2012-10-23,82,78,73,71,67,62,87,73,58,30.04,30.01,29.97,10,9,2,21,13,28,0.30,5,Rain,65
2012-10-24,84,79,74,72,69,67,87,71,55,30.00,29.96,29.91,10,10,10,21,14,26,0.07,5,,70
2012-10-25,81,75,69,73,71,68,94,83,71,29.90,29.82,29.74,10,9,2,28,14,35,0.44,6,Rain-Thunderstorm,57
2012-10-26,78,73,67,72,67,63,90,77,64,29.73,29.59,29.51,10,8,2,35,21,53,0.80,7,Rain,5
2012-10-27,73,70,66,68,63,60,97,83,68,29.66,29.52,29.44,10,9,2,28,17,37,0.05,5,Rain,300
2012-10-28,78,69,60,62,59,55,93,72,50,29.78,29.70,29.66,10,10,9,23,14,29,0.00,1,,286
2012-10-29,70,61,51,53,45,32,86,56,25,29.85,29.79,29.74,10,10,10,24,13,30,0.00,2,,283
2012-10-30,70,58,45,47,40,32,80,56,31,29.97,29.89,29.83,10,10,10,25,13,36,0.00,0,,271
2012-10-31,72,59,46,51,46,40,100,69,37,30.07,30.01,29.97,10,10,10,21,8,26,0.00,0,,269